createdAt,value
2022-10-12T00:03:21.784Z,11.2
2022-10-12T00:08:19.927Z,11.2
2022-10-12T00:13:17.881Z,11.2
2022-10-12T00:18:16.024Z,11.2
2022-10-12T00:23:14.301Z,11.2
2022-10-12T00:28:12.289Z,11.2
2022-10-12T00:33:10.342Z,11.3
2022-10-12T00:38:08.629Z,11.3
2022-10-12T00:43:06.737Z,11.2
2022-10-12T00:48:04.770Z,11.1
2022-10-12T00:53:02.961Z,11.2
2022-10-12T00:58:01.193Z,11.3
2022-10-12T01:02:58.944Z,11.3
2022-10-12T01:07:57.199Z,11.4
2022-10-12T01:12:55.434Z,11.4
2022-10-12T01:17:53.684Z,11.3
2022-10-12T01:22:51.687Z,11.2
2022-10-12T01:27:49.800Z,11
2022-10-12T01:32:47.791Z,10.9
2022-10-12T01:37:46.165Z,10.9
2022-10-12T01:42:44.149Z,10.8
2022-10-12T01:47:42.428Z,10.8
2022-10-12T01:52:40.964Z,10.9
2022-10-12T01:57:39.702Z,10.9
2022-10-12T02:02:37.166Z,10.9
2022-10-12T02:07:35.743Z,10.9
2022-10-12T02:12:33.744Z,10.9
2022-10-12T02:17:32.029Z,10.9
2022-10-12T02:22:30.222Z,10.9
2022-10-12T02:27:28.438Z,10.9
2022-10-12T02:32:26.613Z,10.9
2022-10-12T02:37:24.871Z,10.8
2022-10-12T02:42:22.763Z,10.8
2022-10-12T02:47:20.817Z,10.8
2022-10-12T02:52:18.951Z,10.8
2022-10-12T02:57:17.182Z,10.9
2022-10-12T03:02:15.335Z,10.8
2022-10-12T03:07:13.536Z,10.9
2022-10-12T03:12:11.717Z,10.9
2022-10-12T03:17:09.715Z,10.9
2022-10-12T03:22:07.802Z,10.9
2022-10-12T03:27:06.217Z,10.9
2022-10-12T03:32:04.300Z,11
2022-10-12T03:37:02.343Z,11
2022-10-12T03:42:00.562Z,11
2022-10-12T03:46:58.766Z,10.9
2022-10-12T03:51:56.803Z,11
2022-10-12T03:56:55.082Z,10.9
2022-10-12T04:01:53.115Z,10.7
2022-10-12T04:06:51.064Z,10.7
2022-10-12T04:11:49.230Z,10.6
2022-10-12T04:16:47.416Z,10.5
2022-10-12T04:21:45.431Z,10.4
2022-10-12T04:26:43.378Z,10.2
2022-10-12T04:31:41.234Z,10.4
2022-10-12T04:36:39.208Z,10.3
2022-10-12T04:41:37.323Z,10.2
2022-10-12T04:46:35.498Z,10.2
2022-10-12T04:51:33.624Z,10.2
2022-10-12T04:56:31.834Z,10.4
2022-10-12T05:01:30.164Z,10.6
2022-10-12T05:06:28.438Z,10.8
2022-10-12T05:11:26.683Z,10.9
2022-10-12T05:16:25.045Z,11.2
2022-10-12T05:21:23.447Z,11.5
2022-10-12T05:26:21.856Z,11.6
2022-10-12T05:31:20.307Z,11.8
2022-10-12T05:36:18.932Z,12.2
2022-10-12T05:41:17.524Z,12.6
2022-10-12T05:46:16.157Z,13
2022-10-12T05:51:14.642Z,13.6
2022-10-12T05:56:13.450Z,14.2
2022-10-12T06:01:12.279Z,14.7
2022-10-12T06:06:10.979Z,15
2022-10-12T06:11:09.015Z,14.9
2022-10-12T06:16:07.109Z,15.1
2022-10-12T06:26:03.748Z,15.2
2022-10-12T06:31:02.010Z,15.6
2022-10-12T06:36:03.211Z,15.8
2022-10-12T06:41:01.519Z,16.6
2022-10-12T06:46:01.289Z,18.6
2022-10-12T06:51:00.785Z,19.9
2022-10-12T06:55:59.541Z,20.4
2022-10-12T07:00:58.023Z,21
2022-10-12T07:05:58.255Z,23.7
2022-10-12T07:10:59.861Z,26.2
2022-10-12T07:15:58.202Z,26.9
2022-10-12T07:20:57.679Z,29
2022-10-12T07:25:58.564Z,30.7
2022-10-12T07:30:56.188Z,30.7
2022-10-12T07:36:12.583Z,28.2
2022-10-12T07:40:49.282Z,27.8
2022-10-12T07:45:47.032Z,27.4
2022-10-12T07:50:46.686Z,29.6
2022-10-12T07:55:46.154Z,31.4
2022-10-12T08:00:48.021Z,34.3
2022-10-12T08:05:43.948Z,30.9
2022-10-12T08:10:40.879Z,31.9
2022-10-12T08:15:40.622Z,31.8
2022-10-12T08:20:36.875Z,29.5
2022-10-12T08:25:33.444Z,28.2
2022-10-12T08:30:30.074Z,26.4
2022-10-12T08:35:26.833Z,25.4
2022-10-12T08:40:24.447Z,25.1
2022-10-12T08:45:22.390Z,25
2022-10-12T08:50:20.362Z,24.9
2022-10-12T08:55:18.963Z,25.4
2022-10-12T09:00:17.296Z,25.8
2022-10-12T09:05:15.448Z,25.6
2022-10-12T09:10:13.490Z,25.4
2022-10-12T09:15:11.428Z,25.1
2022-10-12T09:20:09.363Z,25
2022-10-12T09:25:07.649Z,25.1
2022-10-12T09:30:06.616Z,25.7
2022-10-12T09:35:04.813Z,25.5
2022-10-12T09:40:02.905Z,25.3
2022-10-12T09:45:01.200Z,25.8
2022-10-12T09:49:58.738Z,24.8
2022-10-12T09:54:56.271Z,24.4
2022-10-12T09:59:54.383Z,24.5
2022-10-12T10:04:52.700Z,24.9
2022-10-12T10:09:51.883Z,25.8
2022-10-12T10:14:50.826Z,26.4
2022-10-12T10:19:49.663Z,27.5
2022-10-12T10:24:48.325Z,27.6
2022-10-12T10:29:46.402Z,27.7
2022-10-12T10:34:45.169Z,28.7
2022-10-12T10:39:45.013Z,31.4
2022-10-12T10:44:45.189Z,32.3
2022-10-12T10:49:43.230Z,30.5
2022-10-12T10:54:39.028Z,29.1
2022-10-12T10:59:36.332Z,28.1
2022-10-12T11:04:34.135Z,28.1
2022-10-12T11:09:32.823Z,28.4
2022-10-12T11:14:30.785Z,28.2
2022-10-12T11:19:29.186Z,28.9
2022-10-12T11:24:28.165Z,29.6
2022-10-12T11:29:26.356Z,29.2
2022-10-12T11:34:24.212Z,28.5
2022-10-12T11:39:22.798Z,28.2
2022-10-12T11:44:19.674Z,28.1
2022-10-12T11:49:17.892Z,28.1
2022-10-12T11:54:16.460Z,27.4
2022-10-12T11:59:13.308Z,26.7
2022-10-12T12:04:29.483Z,26.3
2022-10-12T12:09:09.063Z,26
2022-10-12T12:14:07.115Z,25.9
2022-10-12T12:19:05.249Z,26.1
2022-10-12T12:24:03.365Z,26.1
2022-10-12T12:29:01.320Z,25.9
2022-10-12T12:33:59.266Z,25.7
2022-10-12T12:38:57.141Z,25.5
2022-10-12T12:43:55.068Z,25.3
2022-10-12T12:48:53.179Z,25
2022-10-12T12:53:51.181Z,24.4
2022-10-12T12:58:48.777Z,24.2
2022-10-12T13:03:46.832Z,23.9
2022-10-12T13:08:44.781Z,23.5
2022-10-12T13:13:42.782Z,23.5
2022-10-12T13:18:48.958Z,23.3
2022-10-12T13:23:38.867Z,23.1
2022-10-12T13:28:36.794Z,22.7
2022-10-12T13:33:34.726Z,22.5
2022-10-12T13:38:32.875Z,22.2
2022-10-12T13:43:30.667Z,21.8
2022-10-12T13:48:46.796Z,21.3
2022-10-12T13:53:26.600Z,21.2
2022-10-12T13:58:24.103Z,20.5
2022-10-12T14:03:21.968Z,20.5
2022-10-12T14:08:19.898Z,20.3
2022-10-12T14:13:16.828Z,20.2
2022-10-12T14:18:14.810Z,19.9
2022-10-12T14:23:12.418Z,19.6
2022-10-12T14:28:10.546Z,19.5
2022-10-12T14:33:08.821Z,19.5
2022-10-12T14:38:06.842Z,19.4
2022-10-12T14:43:04.822Z,19.2
2022-10-12T14:48:02.071Z,18.9
2022-10-12T14:52:59.933Z,18.6
2022-10-12T14:57:57.707Z,17.9
2022-10-12T15:02:55.280Z,17.2
2022-10-12T15:07:53.275Z,16.9
2022-10-12T15:12:51.025Z,16.4
2022-10-12T15:17:48.877Z,16.1
2022-10-12T15:22:46.774Z,15.8
2022-10-12T15:27:44.771Z,15.6
2022-10-12T15:32:42.692Z,15.1
2022-10-12T15:37:40.541Z,14.7
2022-10-12T15:42:38.075Z,14.3
2022-10-12T15:47:35.442Z,13.9
2022-10-12T15:52:33.372Z,13.7
2022-10-12T15:57:31.318Z,13.5
2022-10-12T16:02:29.412Z,13.4
2022-10-12T16:07:27.309Z,13.4
2022-10-12T16:12:25.567Z,13.2
2022-10-12T16:17:23.675Z,13.1
2022-10-12T16:22:21.849Z,13
2022-10-12T16:27:19.916Z,12.9
2022-10-12T16:32:17.999Z,12.9
2022-10-12T16:37:15.987Z,12.8
2022-10-12T16:42:14.379Z,12.7
2022-10-12T16:47:12.326Z,12.7
2022-10-12T16:52:10.385Z,12.6
2022-10-12T16:57:08.380Z,12.5
2022-10-12T17:02:06.495Z,12.4
2022-10-12T17:07:04.505Z,12.3
2022-10-12T17:12:02.588Z,12.2
2022-10-12T17:17:03.618Z,12.2
2022-10-12T17:22:01.234Z,12.4
2022-10-12T17:26:59.690Z,12.3
2022-10-12T17:31:57.798Z,12.3
2022-10-12T17:36:55.937Z,12.2
2022-10-12T17:41:54.148Z,12.1
2022-10-12T17:46:52.413Z,12.1
2022-10-12T17:51:50.628Z,11.8
2022-10-12T17:56:48.932Z,11.7
2022-10-12T18:01:46.979Z,11.5
2022-10-12T18:06:45.399Z,11.5
2022-10-12T18:11:43.588Z,11.4
2022-10-12T18:16:41.948Z,11.3
2022-10-12T18:21:40.188Z,11.1
2022-10-12T18:26:38.202Z,11
2022-10-12T18:31:36.232Z,10.8
2022-10-12T18:36:34.520Z,10.7
2022-10-12T18:41:32.645Z,10.6
2022-10-12T18:46:30.892Z,10.5
2022-10-12T18:51:29.159Z,10.5
2022-10-12T18:56:27.553Z,10.6
2022-10-12T19:01:25.531Z,10.5
2022-10-12T19:06:23.693Z,10.4
2022-10-12T19:11:21.753Z,10.4
2022-10-12T19:16:20.162Z,10.3
2022-10-12T19:21:17.282Z,10.1
2022-10-12T19:26:15.151Z,9.9
2022-10-12T19:31:13.054Z,9.8
2022-10-12T19:36:11.217Z,9.6
2022-10-12T19:41:09.136Z,9.6
2022-10-12T19:46:07.395Z,9.5
2022-10-12T19:51:05.756Z,9.5
2022-10-12T19:56:04.003Z,9.3
2022-10-12T20:01:02.857Z,9.1
2022-10-12T20:06:01.135Z,9
2022-10-12T20:10:59.394Z,8.9
2022-10-12T20:15:57.835Z,8.8
2022-10-12T20:20:56.138Z,8.7
2022-10-12T20:25:54.277Z,8.6
2022-10-12T20:30:52.435Z,8.5
2022-10-12T20:35:50.795Z,8.4
2022-10-12T20:40:49.108Z,7.6
2022-10-12T20:45:47.162Z,8.2
2022-10-12T20:50:45.222Z,8
2022-10-12T20:55:43.268Z,7.9
2022-10-12T21:00:41.398Z,7.9
2022-10-12T21:05:39.387Z,7.9
2022-10-12T21:10:40.075Z,8
2022-10-12T21:15:35.663Z,7.8
2022-10-12T21:20:33.747Z,7.8
2022-10-12T21:25:31.953Z,7.8
2022-10-12T21:30:30.113Z,7.8
2022-10-12T21:35:28.423Z,7.8
2022-10-12T21:40:26.581Z,7.8
2022-10-12T21:45:24.627Z,7.7
2022-10-12T21:50:22.754Z,7.6
2022-10-12T21:55:20.939Z,7.7
2022-10-12T22:00:19.026Z,7.7
2022-10-12T22:05:17.114Z,7.7
2022-10-12T22:10:15.354Z,7.7
2022-10-12T22:15:13.503Z,7.7
2022-10-12T22:20:11.532Z,7.6
2022-10-12T22:25:09.728Z,7.5
2022-10-12T22:30:08.021Z,7.5
2022-10-12T22:35:06.470Z,7.5
2022-10-12T22:40:04.756Z,7.4
2022-10-12T22:45:02.849Z,7.4
2022-10-12T22:50:01.081Z,7.4
2022-10-12T22:54:59.415Z,7.3
2022-10-12T22:59:57.623Z,7.3
2022-10-12T23:04:55.777Z,7.3
2022-10-12T23:09:53.801Z,7.3
2022-10-12T23:14:52.016Z,7.2
2022-10-12T23:19:50.110Z,7.2
2022-10-12T23:24:48.243Z,7
2022-10-12T23:29:46.045Z,6.9
2022-10-12T23:34:44.137Z,6.8
2022-10-12T23:39:42.383Z,6.7
2022-10-12T23:44:40.521Z,6.5
2022-10-12T23:49:38.798Z,6.6
2022-10-12T23:54:36.799Z,6.4
2022-10-12T23:59:34.956Z,6.4
